createdAt,value
2023-04-10T00:01:23.973Z,99127.66
2023-04-10T00:03:50.422Z,99126.63
2023-04-10T00:06:16.881Z,99129.84
2023-04-10T00:08:43.215Z,99127.16
2023-04-10T00:11:09.548Z,99130.66
2023-04-10T00:13:35.948Z,99126.94
2023-04-10T00:16:02.396Z,99115.97
2023-04-10T00:18:28.819Z,99116.47
2023-04-10T00:20:55.151Z,99112.47
2023-04-10T00:23:21.704Z,99114.88
2023-04-10T00:25:48.292Z,99116.50
2023-04-10T00:28:15.675Z,99113.00
2023-04-10T00:30:42.013Z,99111.97
2023-04-10T00:33:08.400Z,99115.44
2023-04-10T00:35:34.816Z,99111.97
2023-04-10T00:38:01.163Z,99112.75
2023-04-10T00:40:29.678Z,99110.88
2023-04-10T00:42:56.040Z,99112.75
2023-04-10T00:45:22.356Z,99117.31
2023-04-10T00:47:48.740Z,99106.03
2023-04-10T00:50:15.312Z,99109.53
2023-04-10T00:52:41.632Z,99109.00
2023-04-10T00:55:08.114Z,99106.31
2023-04-10T00:57:34.724Z,99102.28
2023-04-10T01:00:01.112Z,99097.19
2023-04-10T01:02:27.543Z,99098.28
2023-04-10T01:04:53.941Z,99097.34
2023-04-10T01:07:22.295Z,99095.16
2023-04-10T01:09:59.138Z,99097.56
2023-04-10T01:12:40.664Z,99092.47
2023-04-10T01:15:08.483Z,99095.69
2023-04-10T01:17:36.378Z,99098.31
2023-04-10T01:20:02.999Z,99094.78
2023-04-10T01:22:46.597Z,99097.72
2023-04-10T01:25:31.793Z,99110.28
2023-04-10T01:28:03.927Z,99106.50
2023-04-10T01:30:30.247Z,99108.31
2023-04-10T01:32:56.964Z,99105.59
2023-04-10T01:35:23.371Z,99102.66
2023-04-10T01:37:49.802Z,99104.50
2023-04-10T01:40:16.516Z,99099.41
2023-04-10T01:42:47.984Z,99100.16
2023-04-10T01:45:16.376Z,99095.88
2023-04-10T01:47:42.833Z,99100.94
2023-04-10T01:50:09.201Z,99091.53
2023-04-10T01:52:35.546Z,99099.81
2023-04-10T01:55:02.106Z,99099.03
2023-04-10T01:57:30.563Z,99103.25
2023-04-10T01:59:56.877Z,99100.06
2023-04-10T02:02:23.473Z,99100.31
2023-04-10T02:04:52.891Z,99097.47
2023-04-10T02:07:20.364Z,99095.63
2023-04-10T02:10:00.407Z,99085.75
2023-04-10T02:12:28.863Z,99095.63
2023-04-10T02:14:56.136Z,99093.22
2023-04-10T02:17:23.615Z,99086.28
2023-04-10T02:19:50.031Z,99088.13
2023-04-10T02:22:16.877Z,99089.22
2023-04-10T02:24:43.196Z,99089.72
2023-04-10T02:27:09.498Z,99084.88
2023-04-10T02:29:35.832Z,99086.19
2023-04-10T02:32:02.172Z,99073.59
2023-04-10T02:34:28.490Z,99072.22
2023-04-10T02:36:54.899Z,99069.03
2023-04-10T02:39:21.217Z,99066.84
2023-04-10T02:41:47.752Z,99063.88
2023-04-10T02:44:14.063Z,99062.53
2023-04-10T02:46:41.201Z,99058.19
2023-04-10T02:49:07.527Z,99060.84
2023-04-10T02:51:37.109Z,99056.88
2023-04-10T02:54:03.574Z,99054.47
2023-04-10T02:56:29.908Z,99050.44
2023-04-10T02:58:56.239Z,99059.75
2023-04-10T03:01:23.410Z,99051.97
2023-04-10T03:03:49.827Z,99052.72
2023-04-10T03:06:16.273Z,99051.91
2023-04-10T03:08:42.580Z,99050.56
2023-04-10T03:11:09.531Z,99049.47
2023-04-10T03:13:36.012Z,99054.25
2023-04-10T03:16:02.582Z,99043.81
2023-04-10T03:18:29.798Z,99048.63
2023-04-10T03:20:56.133Z,99044.56
2023-04-10T03:23:22.474Z,99038.69
2023-04-10T03:25:55.014Z,99042.41
2023-04-10T03:28:21.558Z,99046.41
2023-04-10T03:30:48.141Z,99035.72
2023-04-10T03:33:14.475Z,99033.06
2023-04-10T03:35:40.830Z,99030.66
2023-04-10T03:38:07.176Z,99030.88
2023-04-10T03:40:34.320Z,99033.00
2023-04-10T03:43:00.970Z,99034.31
2023-04-10T03:45:27.344Z,99036.44
2023-04-10T03:47:53.683Z,99035.84
2023-04-10T03:50:20.407Z,99029.97
2023-04-10T03:52:46.830Z,99019.78
2023-04-10T03:55:14.357Z,99023.22
2023-04-10T03:57:40.780Z,99023.97
2023-04-10T04:00:08.766Z,99024.53
2023-04-10T04:02:35.240Z,99028.81
2023-04-10T04:05:01.670Z,99027.75
2023-04-10T04:07:27.992Z,99027.22
2023-04-10T04:09:56.477Z,99030.94
2023-04-10T04:12:22.917Z,99033.03
2023-04-10T04:14:49.255Z,99026.59
2023-04-10T04:17:15.584Z,99026.28
2023-04-10T04:19:42.130Z,99023.59
2023-04-10T04:22:08.504Z,99028.66
2023-04-10T04:24:34.828Z,99020.09
2023-04-10T04:27:02.604Z,99022.22
2023-04-10T04:29:28.918Z,99021.63
2023-04-10T04:31:55.457Z,99018.16
2023-04-10T04:34:21.835Z,99018.41
2023-04-10T04:36:48.203Z,99018.66
2023-04-10T04:39:14.576Z,99024.22
2023-04-10T04:41:40.883Z,99027.13
2023-04-10T04:44:07.192Z,99023.66
2023-04-10T04:46:33.537Z,99026.09
2023-04-10T04:48:59.884Z,99024.22
2023-04-10T04:51:27.054Z,99024.22
2023-04-10T04:53:53.627Z,99023.66
2023-04-10T04:56:20.384Z,99028.44
2023-04-10T04:58:46.688Z,99022.56
2023-04-10T05:01:13.109Z,99016.91
2023-04-10T05:03:39.529Z,99019.81
2023-04-10T05:06:06.088Z,99012.09
2023-04-10T05:08:32.427Z,99024.34
2023-04-10T05:10:58.761Z,99019.81
2023-04-10T05:13:25.302Z,99028.94
2023-04-10T05:15:51.718Z,99015.94
2023-04-10T05:18:19.813Z,99017.28
2023-04-10T05:20:46.865Z,99017.28
2023-04-10T05:23:13.188Z,99023.19
2023-04-10T05:25:39.511Z,99022.13
2023-04-10T05:28:05.901Z,99027.22
2023-04-10T05:30:32.221Z,99020.03
2023-04-10T05:32:58.610Z,99030.94
2023-04-10T05:35:24.992Z,99020.25
2023-04-10T05:37:51.346Z,99030.94
2023-04-10T05:40:17.677Z,99026.44
2023-04-10T05:42:44.009Z,99028.03
2023-04-10T05:45:10.623Z,99030.47
2023-04-10T05:47:37.266Z,99030.75
2023-04-10T05:50:03.846Z,99029.47
2023-04-10T05:52:30.927Z,99031.06
2023-04-10T05:54:57.242Z,99028.13
2023-04-10T05:57:23.656Z,99035.13
2023-04-10T05:59:49.974Z,99029.50
2023-04-10T06:02:16.949Z,99018.28
2023-04-10T06:04:43.524Z,99027.91
2023-04-10T06:07:10.179Z,99023.38
2023-04-10T06:09:36.495Z,99019.38
2023-04-10T06:12:02.799Z,99014.34
2023-04-10T06:14:29.136Z,99017.59
2023-04-10T06:16:55.453Z,99003.72
2023-04-10T06:19:21.774Z,99005.91
2023-04-10T06:21:48.082Z,99003.78
2023-04-10T06:24:15.691Z,99007.03
2023-04-10T06:26:42.004Z,98998.50
2023-04-10T06:31:34.561Z,98995.09
2023-04-10T06:34:00.906Z,98989.28
2023-04-10T06:36:27.650Z,98984.72
2023-04-10T06:38:54.256Z,98986.63
2023-04-10T06:41:20.906Z,98981.03
2023-04-10T06:43:47.446Z,98978.44
2023-04-10T06:46:14.235Z,98970.44
2023-04-10T06:48:40.804Z,98958.63
2023-04-10T06:51:07.591Z,98965.34
2023-04-10T06:53:33.955Z,98963.25
2023-04-10T06:56:02.974Z,98964.06
2023-04-10T06:58:29.936Z,98968.59
2023-04-10T07:00:56.335Z,98974.16
2023-04-10T07:03:22.686Z,98972.59
2023-04-10T07:05:49.036Z,98969.44
2023-04-10T07:08:15.958Z,98974.50
2023-04-10T07:10:42.264Z,98975.31
2023-04-10T07:13:08.593Z,98968.44
2023-04-10T07:15:34.896Z,98962.84
2023-04-10T07:18:01.365Z,98969.53
2023-04-10T07:20:28.057Z,98962.91
2023-04-10T07:22:54.399Z,98965.91
2023-04-10T07:25:20.952Z,98969.97
2023-04-10T07:27:47.276Z,98964.09
2023-04-10T07:30:14.029Z,98967.88
2023-04-10T07:32:42.095Z,98952.63
2023-04-10T07:35:08.825Z,98953.59
2023-04-10T07:37:35.318Z,98959.84
2023-04-10T07:40:02.645Z,98953.72
2023-04-10T07:42:29.121Z,98961.91
2023-04-10T07:44:55.519Z,98955.06
2023-04-10T07:47:21.864Z,98954.28
2023-04-10T07:49:48.335Z,98952.44
2023-04-10T07:52:15.799Z,98954.34
2023-04-10T07:54:42.499Z,98955.50
2023-04-10T07:57:08.828Z,98950.97
2023-04-10T07:59:35.210Z,98938.16
2023-04-10T08:02:01.664Z,98936.34
2023-04-10T08:04:28.214Z,98944.91
2023-04-10T08:06:54.761Z,98939.47
2023-04-10T08:09:21.164Z,98933.66
2023-04-10T08:11:47.881Z,98940.59
2023-04-10T08:14:18.173Z,98928.56
2023-04-10T08:16:44.859Z,98943.31
2023-04-10T08:19:11.371Z,98937.31
2023-04-10T08:21:37.721Z,98926.34
2023-04-10T08:24:04.391Z,98935.75
2023-04-10T08:26:30.720Z,98939.34
2023-04-10T08:28:57.858Z,98937.38
2023-04-10T08:31:24.685Z,98926.16
2023-04-10T08:33:52.010Z,98923.59
2023-04-10T08:36:20.170Z,98932.09
2023-04-10T08:38:46.996Z,98927.69
2023-04-10T08:41:13.766Z,98917.34
2023-04-10T08:43:40.078Z,98916.56
2023-04-10T08:46:06.723Z,98918.09
2023-04-10T08:48:38.341Z,98926.19
2023-04-10T08:51:04.958Z,98919.22
2023-04-10T08:53:32.279Z,98905.88
2023-04-10T08:55:58.697Z,98900.91
2023-04-10T08:58:25.004Z,98884.75
2023-04-10T09:00:51.328Z,98872.81
2023-04-10T09:03:17.765Z,98874.88
2023-04-10T09:05:44.262Z,98874.19
2023-04-10T09:08:13.672Z,98875.25
2023-04-10T09:10:40.039Z,98867.72
2023-04-10T09:13:06.370Z,98857.06
2023-04-10T09:15:52.621Z,98861.91
2023-04-10T09:18:18.966Z,98855.81
2023-04-10T09:20:46.770Z,98849.66
2023-04-10T09:23:19.772Z,98846.50
2023-04-10T09:25:46.084Z,98855.03
2023-04-10T09:28:12.409Z,98841.97
2023-04-10T09:30:40.025Z,98837.22
2023-04-10T09:33:21.684Z,98832.13
2023-04-10T09:35:48.032Z,98830.19
2023-04-10T09:38:19.736Z,98822.94
2023-04-10T09:40:46.199Z,98832.84
2023-04-10T09:43:19.001Z,98817.91
2023-04-10T09:45:48.744Z,98825.66
2023-04-10T09:48:15.432Z,98813.34
2023-04-10T09:50:42.120Z,98817.59
2023-04-10T09:53:09.022Z,98817.06
2023-04-10T09:55:36.300Z,98796.69
2023-04-10T09:58:03.360Z,98790.50
2023-04-10T10:00:29.687Z,98792.97
2023-04-10T10:02:56.206Z,98785.03
2023-04-10T10:07:49.425Z,98780.47
2023-04-10T10:10:15.723Z,98770.31
2023-04-10T10:12:54.990Z,98767.38
2023-04-10T10:15:40.153Z,98779.63
2023-04-10T10:18:09.467Z,98767.06
2023-04-10T10:20:36.735Z,98762.25
2023-04-10T10:23:03.452Z,98753.72
2023-04-10T10:25:31.208Z,98748.94
2023-04-10T10:27:57.607Z,98745.47
2023-04-10T10:30:30.263Z,98747.09
2023-04-10T10:32:58.259Z,98741.78
2023-04-10T10:35:27.282Z,98728.38
2023-04-10T10:37:55.181Z,98730.75
2023-04-10T10:40:38.863Z,98716.63
2023-04-10T10:43:05.096Z,98715.00
2023-04-10T10:45:33.189Z,98710.16
2023-04-10T10:47:59.596Z,98694.44
2023-04-10T10:50:25.991Z,98704.06
2023-04-10T10:52:52.938Z,98696.63
2023-04-10T10:55:22.550Z,98684.31
2023-04-10T10:57:52.296Z,98681.09
2023-04-10T11:00:19.063Z,98672.31
2023-04-10T11:02:45.722Z,98672.84
2023-04-10T11:05:32.094Z,98663.25
2023-04-10T11:07:58.340Z,98657.69
2023-04-10T11:10:43.395Z,98651.25
2023-04-10T11:15:35.901Z,98659.50
2023-04-10T11:18:02.253Z,98638.09
2023-04-10T11:20:28.817Z,98638.91
2023-04-10T11:23:21.371Z,98648.28
2023-04-10T11:25:49.037Z,98639.94
2023-04-10T11:28:34.492Z,98642.38
2023-04-10T11:31:16.242Z,98629.56
2023-04-10T11:33:42.663Z,98635.13
2023-04-10T11:36:08.988Z,98623.13
2023-04-10T11:38:35.313Z,98614.03
2023-04-10T11:41:02.847Z,98623.66
2023-04-10T11:43:29.312Z,98614.56
2023-04-10T11:46:02.042Z,98626.09
2023-04-10T11:48:29.482Z,98619.66
2023-04-10T11:50:55.932Z,98620.94
2023-04-10T11:53:22.265Z,98596.88
2023-04-10T11:55:48.847Z,98588.66
2023-04-10T11:58:24.713Z,98590.03
2023-04-10T12:00:57.295Z,98594.47
2023-04-10T12:03:33.714Z,98588.88
2023-04-10T12:06:00.189Z,98585.13
2023-04-10T12:08:30.515Z,98584.06
2023-04-10T12:10:56.831Z,98573.38
2023-04-10T12:13:26.838Z,98564.59
2023-04-10T12:15:53.529Z,98567.53
2023-04-10T12:18:20.391Z,98561.09
2023-04-10T12:20:46.697Z,98556.28
2023-04-10T12:23:13.022Z,98563.50
2023-04-10T12:25:39.377Z,98556.28
2023-04-10T12:28:06.100Z,98557.31
2023-04-10T12:30:32.429Z,98553.28
2023-04-10T12:33:00.186Z,98547.94
2023-04-10T12:35:39.192Z,98544.69
2023-04-10T12:38:05.652Z,98536.66
2023-04-10T12:40:32.221Z,98543.84
2023-04-10T12:42:58.547Z,98547.31
2023-04-10T12:45:43.738Z,98541.44
2023-04-10T12:48:10.070Z,98529.47
2023-04-10T12:50:48.877Z,98538.25
2023-04-10T12:53:15.705Z,98533.72
2023-04-10T12:55:43.005Z,98528.06
2023-04-10T12:58:17.345Z,98518.97
2023-04-10T13:00:43.727Z,98515.81
2023-04-10T13:03:10.439Z,98500.03
2023-04-10T13:05:36.846Z,98510.75
2023-04-10T13:08:03.172Z,98505.41
2023-04-10T13:10:29.562Z,98495.59
2023-04-10T13:12:56.047Z,98484.63
2023-04-10T13:15:22.371Z,98485.41
2023-04-10T13:17:48.754Z,98476.06
2023-04-10T13:20:15.173Z,98472.59
2023-04-10T13:22:41.503Z,98467.22
2023-04-10T13:25:07.974Z,98467.53
2023-04-10T13:27:34.315Z,98452.59
2023-04-10T13:30:00.632Z,98445.16
2023-04-10T13:32:27.034Z,98431.03
2023-04-10T13:34:54.756Z,98425.72
2023-04-10T13:37:21.126Z,98430.81
2023-04-10T13:39:47.439Z,98434.47
2023-04-10T13:42:13.767Z,98428.66
2023-04-10T13:44:40.097Z,98416.13
2023-04-10T13:47:06.652Z,98411.03
2023-04-10T13:49:33.147Z,98421.06
2023-04-10T13:51:59.478Z,98403.69
2023-04-10T13:54:26.460Z,98402.84
2023-04-10T13:56:54.546Z,98385.84
2023-04-10T13:59:21.090Z,98382.66
2023-04-10T14:01:47.731Z,98388.53
2023-04-10T14:04:14.061Z,98370.69
2023-04-10T14:06:40.683Z,98377.63
2023-04-10T14:09:07.101Z,98364.81
2023-04-10T14:11:33.402Z,98354.16
2023-04-10T14:13:59.728Z,98345.66
2023-04-10T14:16:26.104Z,98353.94
2023-04-10T14:18:52.576Z,98333.59
2023-04-10T14:21:20.687Z,98331.16
2023-04-10T14:23:47.399Z,98322.31
2023-04-10T14:26:13.749Z,98322.91
2023-04-10T14:28:40.090Z,98320.75
2023-04-10T14:31:07.918Z,98310.38
2023-04-10T14:33:35.000Z,98299.47
2023-04-10T14:36:01.442Z,98298.72
2023-04-10T14:38:27.793Z,98300.56
2023-04-10T14:40:54.099Z,98286.19
2023-04-10T14:43:20.842Z,98277.94
2023-04-10T14:45:47.217Z,98277.94
2023-04-10T14:48:13.683Z,98276.59
2023-04-10T14:50:40.073Z,98270.72
2023-04-10T14:53:06.394Z,98263.78
2023-04-10T14:55:32.733Z,98267.22
2023-04-10T14:57:59.145Z,98254.97
2023-04-10T15:00:25.557Z,98246.19
2023-04-10T15:02:52.108Z,98253.66
2023-04-10T15:05:18.595Z,98241.13
2023-04-10T15:07:44.936Z,98229.41
2023-04-10T15:10:11.315Z,98223.31
2023-04-10T15:12:37.705Z,98231.28
2023-04-10T15:15:04.125Z,98219.78
2023-04-10T15:17:30.521Z,98210.47
2023-04-10T15:19:56.854Z,98221.72
2023-04-10T15:22:23.182Z,98202.50
2023-04-10T15:24:51.100Z,98200.91
2023-04-10T15:27:23.387Z,98188.88
2023-04-10T15:29:49.705Z,98200.84
2023-04-10T15:32:16.043Z,98186.00
2023-04-10T15:34:42.410Z,98186.00
2023-04-10T15:37:08.755Z,98174.81
2023-04-10T15:39:36.938Z,98176.16
2023-04-10T15:42:05.151Z,98171.66
2023-04-10T15:44:31.669Z,98163.94
2023-04-10T15:46:57.983Z,98166.31
2023-04-10T15:49:36.328Z,98146.63
2023-04-10T15:52:04.716Z,98140.28
2023-04-10T15:54:32.648Z,98136.63
2023-04-10T15:56:58.948Z,98139.00
2023-04-10T15:59:25.257Z,98130.19
2023-04-10T16:01:51.734Z,98128.84
2023-04-10T16:04:18.288Z,98119.22
2023-04-10T16:06:44.741Z,98124.53
2023-04-10T16:09:24.306Z,98106.66
2023-04-10T16:11:52.349Z,98110.66
2023-04-10T16:14:19.124Z,98107.19
2023-04-10T16:16:45.728Z,98099.16
2023-04-10T16:19:12.081Z,98085.78
2023-04-10T16:21:38.459Z,98089.97
2023-04-10T16:24:04.873Z,98090.56
2023-04-10T16:26:31.223Z,98082.78
2023-04-10T16:28:57.618Z,98089.13
2023-04-10T16:31:24.262Z,98066.72
2023-04-10T16:33:50.620Z,98070.94
2023-04-10T16:36:16.937Z,98066.38
2023-04-10T16:38:44.465Z,98075.47
2023-04-10T16:41:12.318Z,98066.38
2023-04-10T16:43:38.708Z,98060.00
2023-04-10T16:46:05.244Z,98053.66
2023-04-10T16:48:32.578Z,98049.34
2023-04-10T16:51:05.682Z,98054.69
2023-04-10T16:53:38.189Z,98052.59
2023-04-10T16:56:05.402Z,98044.34
2023-04-10T16:58:32.993Z,98050.44
2023-04-10T17:00:59.416Z,98057.31
2023-04-10T17:03:25.831Z,98049.28
2023-04-10T17:05:52.221Z,98046.50
2023-04-10T17:08:18.634Z,98043.78
2023-04-10T17:10:44.938Z,98048.00
2023-04-10T17:13:11.362Z,98039.94
2023-04-10T17:15:39.128Z,98038.06
2023-04-10T17:18:05.772Z,98042.34
2023-04-10T17:20:35.188Z,98037.25
2023-04-10T17:23:01.544Z,98035.19
2023-04-10T17:25:27.857Z,98037.31
2023-04-10T17:27:54.261Z,98032.75
2023-04-10T17:30:20.751Z,98027.41
2023-04-10T17:32:49.057Z,98023.16
2023-04-10T17:35:15.433Z,98017.56
2023-04-10T17:37:41.782Z,98018.91
2023-04-10T17:40:08.342Z,98013.31
2023-04-10T17:42:34.713Z,98008.78
2023-04-10T17:45:01.066Z,97995.72
2023-04-10T17:47:27.459Z,97999.72
2023-04-10T17:49:53.820Z,97993.09
2023-04-10T17:52:20.138Z,97997.38
2023-04-10T17:54:46.481Z,97994.19
2023-04-10T17:57:12.824Z,97993.66
2023-04-10T17:59:39.153Z,97983.81
2023-04-10T18:02:05.508Z,97977.97
2023-04-10T18:04:31.848Z,97970.94
2023-04-10T18:06:58.200Z,97958.31
2023-04-10T18:09:24.523Z,97957.72
2023-04-10T18:11:52.139Z,97942.13
2023-04-10T18:14:18.494Z,97940.72
2023-04-10T18:16:44.867Z,97935.63
2023-04-10T18:19:11.238Z,97934.84
2023-04-10T18:21:37.567Z,97935.09
2023-04-10T18:24:03.903Z,97931.34
2023-04-10T18:26:33.164Z,97922.88
2023-04-10T18:29:00.376Z,97923.97
2023-04-10T18:31:27.021Z,97923.44
2023-04-10T18:34:04.188Z,97919.47
2023-04-10T18:36:33.897Z,97918.69
2023-04-10T18:39:00.538Z,97915.78
2023-04-10T18:41:26.925Z,97913.66
2023-04-10T18:44:01.764Z,97921.13
2023-04-10T18:46:32.402Z,97917.13
2023-04-10T18:48:59.164Z,97911.56
2023-04-10T18:51:26.455Z,97905.19
2023-04-10T18:53:53.015Z,97905.97
2023-04-10T18:56:19.558Z,97905.47
2023-04-10T18:58:49.051Z,97904.19
2023-04-10T19:01:17.530Z,97901.56
2023-04-10T19:03:44.299Z,97901.56
2023-04-10T19:06:10.954Z,97899.75
2023-04-10T19:08:37.324Z,97890.66
2023-04-10T19:11:04.556Z,97892.72
2023-04-10T19:13:31.144Z,97897.44
2023-04-10T19:15:57.496Z,97894.16
2023-04-10T19:18:23.992Z,97888.25
2023-04-10T19:20:53.510Z,97888.25
2023-04-10T19:23:20.408Z,97894.09
2023-04-10T19:25:46.867Z,97894.09
2023-04-10T19:28:13.177Z,97886.63
2023-04-10T19:30:39.574Z,97875.69
2023-04-10T19:33:06.022Z,97883.72
2023-04-10T19:35:32.422Z,97876.50
2023-04-10T19:37:58.749Z,97872.75
2023-04-10T19:40:25.074Z,97874.31
2023-04-10T19:42:51.461Z,97881.91
2023-04-10T19:45:17.779Z,97870.66
2023-04-10T19:47:44.140Z,97869.63
2023-04-10T19:50:10.605Z,97877.63
2023-04-10T19:52:37.771Z,97875.28
2023-04-10T19:55:04.410Z,97866.28
2023-04-10T19:57:30.740Z,97859.44
2023-04-10T19:59:57.191Z,97850.91
2023-04-10T20:02:23.662Z,97840.81
2023-04-10T20:04:50.288Z,97846.41
2023-04-10T20:07:16.710Z,97835.53
2023-04-10T20:09:43.121Z,97841.13
2023-04-10T20:12:09.718Z,97824.63
2023-04-10T20:14:36.074Z,97826.78
2023-04-10T20:17:02.396Z,97822.78
2023-04-10T20:19:28.777Z,97821.47
2023-04-10T20:24:21.540Z,97825.50
2023-04-10T20:26:47.858Z,97812.72
2023-04-10T20:29:14.542Z,97805.56
2023-04-10T20:31:40.955Z,97807.44
2023-04-10T20:34:07.382Z,97806.63
2023-04-10T20:36:34.351Z,97808.81
2023-04-10T20:39:00.825Z,97809.06
2023-04-10T20:41:27.841Z,97807.78
2023-04-10T20:43:55.734Z,97811.53
2023-04-10T20:46:22.306Z,97827.00
2023-04-10T20:48:48.730Z,97832.63
2023-04-10T20:51:15.045Z,97834.75
2023-04-10T20:53:41.355Z,97843.56
2023-04-10T20:56:07.749Z,97839.88
2023-04-10T20:58:34.074Z,97834.00
2023-04-10T21:01:00.437Z,97839.63
2023-04-10T21:03:26.891Z,97827.63
2023-04-10T21:05:54.046Z,97835.13
2023-04-10T21:08:20.614Z,97825.25
2023-04-10T21:10:47.203Z,97825.53
2023-04-10T21:13:14.079Z,97828.47
2023-04-10T21:15:40.857Z,97822.59
2023-04-10T21:18:07.172Z,97806.34
2023-04-10T21:20:36.510Z,97807.44
2023-04-10T21:23:02.831Z,97805.06
2023-04-10T21:25:30.720Z,97799.72
2023-04-10T21:27:57.071Z,97781.91
2023-04-10T21:30:23.393Z,97773.38
2023-04-10T21:32:50.003Z,97770.19
2023-04-10T21:35:16.344Z,97774.19
2023-04-10T21:37:42.653Z,97779.81
2023-04-10T21:40:09.101Z,97774.78
2023-04-10T21:42:38.348Z,97764.38
2023-04-10T21:45:07.762Z,97762.78
2023-04-10T21:47:34.081Z,97763.06
2023-04-10T21:50:00.567Z,97770.81
2023-04-10T21:52:26.908Z,97768.44
2023-04-10T21:54:53.252Z,97778.28
2023-04-10T21:57:19.568Z,97784.97
2023-04-10T21:59:45.903Z,97788.72
2023-04-10T22:02:13.147Z,97791.41
2023-04-10T22:04:51.427Z,97802.31
2023-04-10T22:07:20.505Z,97802.31
2023-04-10T22:09:46.820Z,97802.59
2023-04-10T22:12:13.148Z,97802.88
2023-04-10T22:14:39.452Z,97811.97
2023-04-10T22:17:05.870Z,97816.47
2023-04-10T22:19:32.246Z,97803.16
2023-04-10T22:21:58.559Z,97801.56
2023-04-10T22:24:24.970Z,97799.97
2023-04-10T22:26:51.290Z,97786.13
2023-04-10T22:29:17.602Z,97791.22
2023-04-10T22:31:43.936Z,97775.47
2023-04-10T22:34:10.360Z,97792.84
2023-04-10T22:36:37.013Z,97779.50
2023-04-10T22:39:03.569Z,97780.59
2023-04-10T22:41:30.085Z,97781.94
2023-04-10T22:43:56.401Z,97768.09
2023-04-10T22:46:22.935Z,97772.63
2023-04-10T22:48:49.299Z,97774.50
2023-04-10T22:51:15.684Z,97780.63
2023-04-10T22:53:42.006Z,97776.34
2023-04-10T22:56:08.702Z,97773.19
2023-04-10T22:58:35.748Z,97763.84
2023-04-10T23:01:02.134Z,97762.28
2023-04-10T23:03:28.524Z,97769.19
2023-04-10T23:05:54.924Z,97772.13
2023-04-10T23:08:21.246Z,97766.00
2023-04-10T23:10:47.602Z,97771.34
2023-04-10T23:13:13.918Z,97772.94
2023-04-10T23:15:40.255Z,97766.28
2023-04-10T23:18:07.218Z,97770.53
2023-04-10T23:20:33.596Z,97769.22
2023-04-10T23:22:59.904Z,97758.56
2023-04-10T23:25:26.258Z,97761.50
2023-04-10T23:27:52.595Z,97744.19
2023-04-10T23:30:18.927Z,97738.06
2023-04-10T23:32:45.283Z,97726.13
2023-04-10T23:35:11.623Z,97719.22
2023-04-10T23:37:37.961Z,97696.25
2023-04-10T23:40:04.476Z,97661.91
2023-04-10T23:42:31.180Z,97643.28
2023-04-10T23:44:57.611Z,97633.69
2023-04-10T23:47:24.075Z,97654.72
2023-04-10T23:49:50.518Z,97629.94
2023-04-10T23:52:16.841Z,97586.03
2023-04-10T23:54:43.951Z,97541.03
2023-04-10T23:57:10.400Z,97566.06
2023-04-10T23:59:36.712Z,97579.91
